Terminal Aerodrome Forecast
Issued by NWS Greer, SC

Home | Current Version | Previous Version | Text Only | Print | Product List | Glossary On
Versions: 1 2 3 4 5 6 7 8 9 10 11 12 13 14 15 16 17 18 19 20 21 22 23 24 25 26 27 28 29 30 31
000
FTUS42 KGSP 272339
TAFGSP
TAF
KGSP 272339Z 2800/2824 14005KT P6SM VCSH SCT035 BKN150
     FM280300 09004KT P6SM VCSH OVC040
     FM280600 06005KT P6SM VCSH OVC011
     FM280700 05005KT 6SM BR OVC007
      TEMPO 2807/2809 2SM -SHRA BR
     FM280900 05006KT 5SM -SHRA BR OVC018 PROB30 2813/2819 2SM TS BR
      OVC008CB=

USA.gov is the U.S. government's official web portal to all federal, state and local government web resources and services.